createdAt,value
2022-08-24T00:00:59.351Z,19.91
2022-08-24T00:01:59.802Z,19.89
2022-08-24T00:02:59.366Z,19.88
2022-08-24T00:03:59.662Z,19.83
2022-08-24T00:04:59.857Z,19.77
2022-08-24T00:05:59.402Z,19.82
2022-08-24T00:06:59.970Z,19.89
2022-08-24T00:07:59.453Z,19.84
2022-08-24T00:08:59.446Z,19.81
2022-08-24T00:09:59.402Z,19.82
2022-08-24T00:10:59.549Z,19.75
2022-08-24T00:11:59.424Z,19.74
2022-08-24T00:12:59.526Z,19.78
2022-08-24T00:13:59.508Z,19.78
2022-08-24T00:15:00.026Z,19.7
2022-08-24T00:15:59.569Z,19.74
2022-08-24T00:16:59.775Z,19.76
2022-08-24T00:17:59.753Z,19.75
2022-08-24T00:18:59.553Z,19.79
2022-08-24T00:19:59.792Z,19.78
2022-08-24T00:20:59.757Z,19.68
2022-08-24T00:22:02.993Z,19.73
2022-08-24T00:23:03.224Z,19.67
2022-08-24T00:24:03.197Z,19.71
2022-08-24T00:25:03.669Z,19.69
2022-08-24T00:26:03.585Z,19.81
2022-08-24T00:27:02.697Z,19.79
2022-08-24T00:28:04.138Z,19.78
2022-08-24T00:29:07.310Z,19.8
2022-08-24T00:30:08.271Z,19.77
2022-08-24T00:31:08.148Z,19.68
2022-08-24T00:32:06.048Z,19.65
2022-08-24T00:33:05.266Z,19.62
2022-08-24T00:34:05.593Z,19.61
2022-08-24T00:35:06.191Z,19.55
2022-08-24T00:36:05.796Z,19.54
2022-08-24T00:37:05.371Z,19.5
2022-08-24T00:38:05.493Z,19.5
2022-08-24T00:39:05.952Z,19.57
2022-08-24T00:40:07.809Z,19.56
2022-08-24T00:41:06.152Z,19.61
2022-08-24T00:42:05.637Z,19.76
2022-08-24T00:43:07.108Z,19.61
2022-08-24T00:44:05.766Z,19.6
2022-08-24T00:45:06.343Z,19.55
2022-08-24T00:46:13.393Z,19.52
2022-08-24T00:47:19.512Z,19.72
2022-08-24T00:48:17.583Z,19.69
2022-08-24T00:50:22.148Z,19.53
2022-08-24T00:52:24.627Z,19.44
2022-08-24T00:53:28.831Z,19.47
2022-08-24T00:54:26.584Z,19.58
2022-08-24T00:56:29.596Z,19.63
2022-08-24T00:57:33.940Z,19.57
2022-08-24T00:59:36.187Z,19.6
2022-08-24T01:00:35.238Z,19.59
2022-08-24T01:01:34.203Z,19.52
2022-08-24T01:02:35.638Z,19.42
2022-08-24T01:03:33.250Z,19.38
2022-08-24T01:04:39.467Z,19.67
2022-08-24T01:05:37.362Z,19.64
2022-08-24T01:06:36.609Z,19.62
2022-08-24T01:07:37.047Z,19.5
2022-08-24T01:08:36.576Z,19.4
2022-08-24T01:09:36.472Z,19.43
2022-08-24T01:10:39.070Z,19.42
2022-08-24T01:11:36.547Z,19.38
2022-08-24T01:12:38.112Z,19.4
2022-08-24T01:13:36.520Z,19.38
2022-08-24T01:14:37.896Z,19.45
2022-08-24T01:15:38.300Z,19.42
2022-08-24T01:16:36.917Z,19.38
2022-08-24T01:17:39.214Z,19.37
2022-08-24T01:18:38.836Z,19.38
2022-08-24T01:19:43.238Z,19.36
2022-08-24T01:20:40.164Z,19.43
2022-08-24T01:23:47.671Z,19.19
2022-08-24T01:24:45.051Z,19.24
2022-08-24T01:25:44.638Z,19.18
2022-08-24T01:26:46.435Z,19.22
2022-08-24T01:27:44.999Z,19.23
2022-08-24T01:28:45.735Z,19.22
2022-08-24T01:29:44.727Z,19.2
2022-08-24T01:30:44.703Z,19.19
2022-08-24T01:31:44.361Z,19.25
2022-08-24T01:33:48.798Z,19.19
2022-08-24T01:34:46.495Z,19.15
2022-08-24T01:35:46.342Z,19.1
2022-08-24T01:36:50.671Z,19.12
2022-08-24T01:37:47.936Z,19.21
2022-08-24T01:38:48.514Z,19.15
2022-08-24T01:39:48.706Z,19.17
2022-08-24T01:40:50.985Z,19.16
2022-08-24T01:41:48.727Z,19.2
2022-08-24T01:42:51.968Z,19.13
2022-08-24T01:43:48.930Z,19.12
2022-08-24T01:44:49.066Z,19.18
2022-08-24T01:45:48.875Z,19.26
2022-08-24T01:46:50.476Z,19.2
2022-08-24T01:47:49.018Z,19.01
2022-08-24T01:48:48.988Z,18.97
2022-08-24T01:49:49.304Z,19.06
2022-08-24T01:50:49.069Z,19.08
2022-08-24T01:51:49.080Z,19.05
2022-08-24T01:53:22.959Z,19.03
2022-08-24T01:53:50.389Z,19.02
2022-08-24T01:54:50.576Z,19.09
2022-08-24T01:55:50.572Z,19.12
2022-08-24T01:56:50.602Z,19.11
2022-08-24T01:57:50.579Z,19.24
2022-08-24T01:58:50.633Z,19.34
2022-08-24T01:59:50.767Z,19.3
2022-08-24T02:00:50.667Z,19.18
2022-08-24T02:01:53.736Z,19.09
2022-08-24T02:02:50.955Z,19.03
2022-08-24T02:03:51.843Z,18.98
2022-08-24T02:04:50.665Z,18.97
2022-08-24T02:05:50.729Z,19
2022-08-24T02:06:50.686Z,18.95
2022-08-24T02:07:51.261Z,18.95
2022-08-24T02:08:50.834Z,18.9
2022-08-24T02:09:51.247Z,18.94
2022-08-24T02:10:56.467Z,18.96
2022-08-24T02:11:53.818Z,18.91
2022-08-24T02:12:54.036Z,18.99
2022-08-24T02:13:53.688Z,18.93
2022-08-24T02:14:53.621Z,18.88
2022-08-24T02:15:53.778Z,18.9
2022-08-24T02:16:53.607Z,18.85
2022-08-24T02:17:53.889Z,18.87
2022-08-24T02:18:53.721Z,18.88
2022-08-24T02:19:53.718Z,18.86
2022-08-24T02:20:53.922Z,18.92
2022-08-24T02:21:53.739Z,18.88
2022-08-24T02:22:54.450Z,18.77
2022-08-24T02:23:53.933Z,18.78
2022-08-24T02:24:53.782Z,18.76
2022-08-24T02:25:53.776Z,18.83
2022-08-24T02:26:53.890Z,18.92
2022-08-24T02:27:53.738Z,18.83
2022-08-24T02:28:53.855Z,18.78
2022-08-24T02:29:53.832Z,18.76
2022-08-24T02:30:53.988Z,18.79
2022-08-24T02:31:53.925Z,18.88
2022-08-24T02:32:53.907Z,18.76
2022-08-24T02:33:53.977Z,18.77
2022-08-24T02:34:54.888Z,18.77
2022-08-24T02:35:53.944Z,18.72
2022-08-24T02:36:54.004Z,18.73
2022-08-24T02:37:53.913Z,18.75
2022-08-24T02:38:55.058Z,18.71
2022-08-24T02:39:54.191Z,18.74
2022-08-24T02:40:54.091Z,18.71
2022-08-24T02:41:54.341Z,18.65
2022-08-24T02:42:54.094Z,18.8
2022-08-24T02:43:54.902Z,18.71
2022-08-24T02:44:54.124Z,18.72
2022-08-24T02:45:54.503Z,18.69
2022-08-24T02:46:54.142Z,18.69
2022-08-24T02:47:54.183Z,18.68
2022-08-24T02:48:57.584Z,18.98
2022-08-24T02:49:58.775Z,18.88
2022-08-24T02:50:58.652Z,18.92
2022-08-24T02:51:58.958Z,18.92
2022-08-24T02:52:58.530Z,18.89
2022-08-24T02:53:59.822Z,18.81
2022-08-24T02:54:58.653Z,18.76
2022-08-24T02:55:58.650Z,18.84
2022-08-24T02:56:58.780Z,18.86
2022-08-24T02:57:58.735Z,18.82
2022-08-24T02:58:59.485Z,18.81
2022-08-24T02:59:58.763Z,18.83
2022-08-24T03:00:58.799Z,18.8
2022-08-24T03:01:58.693Z,18.77
2022-08-24T03:02:59.134Z,18.83
2022-08-24T03:03:58.865Z,18.87
2022-08-24T03:04:58.806Z,18.82
2022-08-24T03:05:58.837Z,18.81
2022-08-24T03:06:58.835Z,18.85
2022-08-24T03:07:58.899Z,18.78
2022-08-24T03:08:58.939Z,18.73
2022-08-24T03:09:58.952Z,18.76
2022-08-24T03:10:58.994Z,18.71
2022-08-24T03:11:58.976Z,18.7
2022-08-24T03:12:59.063Z,18.72
2022-08-24T03:13:59.538Z,18.72
2022-08-24T03:14:58.862Z,18.66
2022-08-24T03:15:59.364Z,18.6
2022-08-24T03:16:59.022Z,18.58
2022-08-24T03:17:58.969Z,18.55
2022-08-24T03:18:59.078Z,18.51
2022-08-24T03:19:59.236Z,18.65
2022-08-24T03:21:00.012Z,18.58
2022-08-24T03:21:58.919Z,18.61
2022-08-24T03:22:59.085Z,18.8
2022-08-24T03:23:59.400Z,18.84
2022-08-24T03:24:59.135Z,18.63
2022-08-24T03:25:59.225Z,18.59
2022-08-24T03:26:59.547Z,18.5
2022-08-24T03:27:59.230Z,18.55
2022-08-24T03:28:59.451Z,18.54
2022-08-24T03:29:59.405Z,18.62
2022-08-24T03:30:59.277Z,18.63
2022-08-24T03:31:59.284Z,18.55
2022-08-24T03:32:59.325Z,18.54
2022-08-24T03:33:59.268Z,18.63
2022-08-24T03:34:59.304Z,18.67
2022-08-24T03:35:59.269Z,18.67
2022-08-24T03:36:59.479Z,18.68
2022-08-24T03:37:59.757Z,18.74
2022-08-24T03:38:59.313Z,18.77
2022-08-24T03:39:59.804Z,18.76
2022-08-24T03:40:59.389Z,18.75
2022-08-24T03:41:59.450Z,18.69
2022-08-24T03:43:00.115Z,18.66
2022-08-24T03:43:59.469Z,18.65
2022-08-24T03:44:59.553Z,18.72
2022-08-24T03:46:00.071Z,18.66
2022-08-24T03:47:00.153Z,18.74
2022-08-24T03:47:59.557Z,18.8
2022-08-24T03:48:59.537Z,18.84
2022-08-24T03:49:59.719Z,18.82
2022-08-24T03:50:59.671Z,18.74
2022-08-24T03:51:59.495Z,18.71
2022-08-24T03:52:59.485Z,18.88
2022-08-24T03:54:00.228Z,18.88
2022-08-24T03:54:59.667Z,18.82
2022-08-24T03:55:59.671Z,18.79
2022-08-24T03:57:03.089Z,18.88
2022-08-24T03:58:03.242Z,18.92
2022-08-24T03:59:03.696Z,18.85
2022-08-24T04:00:05.326Z,18.76
2022-08-24T04:01:04.330Z,18.81
2022-08-24T04:02:03.381Z,18.78
2022-08-24T04:03:03.423Z,18.81
2022-08-24T04:04:03.691Z,18.92
2022-08-24T04:05:04.266Z,18.89
2022-08-24T04:06:03.499Z,18.91
2022-08-24T04:07:03.555Z,18.83
2022-08-24T04:08:04.125Z,18.82
2022-08-24T04:09:04.311Z,18.92
2022-08-24T04:10:03.671Z,18.91
2022-08-24T04:11:04.111Z,18.91
2022-08-24T04:12:03.954Z,18.92
2022-08-24T04:13:04.118Z,18.99
2022-08-24T04:14:03.638Z,18.91
2022-08-24T04:15:03.936Z,18.86
2022-08-24T04:16:07.441Z,18.82
2022-08-24T04:17:04.787Z,18.79
2022-08-24T04:18:04.638Z,18.9
2022-08-24T04:19:04.718Z,18.92
2022-08-24T04:20:05.049Z,19
2022-08-24T04:21:04.832Z,18.98
2022-08-24T04:22:04.764Z,18.96
2022-08-24T04:23:04.950Z,18.99
2022-08-24T04:24:06.043Z,18.99
2022-08-24T04:25:08.997Z,18.96
2022-08-24T04:26:06.843Z,19.07
2022-08-24T04:27:06.667Z,19.05
2022-08-24T04:28:06.847Z,19.04
2022-08-24T04:29:08.554Z,18.97
2022-08-24T04:30:07.259Z,18.97
2022-08-24T04:31:07.302Z,19.07
2022-08-24T04:32:06.982Z,19.07
2022-08-24T04:33:06.911Z,19.16
2022-08-24T04:34:07.361Z,19
2022-08-24T04:35:07.663Z,18.86
2022-08-24T04:36:08.113Z,18.99
2022-08-24T04:37:11.221Z,18.98
2022-08-24T04:38:09.290Z,18.92
2022-08-24T04:39:08.826Z,18.99
2022-08-24T04:40:09.405Z,19.11
2022-08-24T04:41:13.490Z,19.23
2022-08-24T04:42:10.986Z,19.16
2022-08-24T04:43:11.324Z,19.19
2022-08-24T04:44:10.777Z,19.21
2022-08-24T04:45:11.050Z,19.17
2022-08-24T04:46:11.753Z,19.14
2022-08-24T04:47:10.820Z,19.14
2022-08-24T04:48:11.435Z,19.2
2022-08-24T04:49:11.227Z,19.17
2022-08-24T04:50:11.057Z,19.21
2022-08-24T04:51:14.082Z,19.25
2022-08-24T04:52:11.310Z,19.21
2022-08-24T04:53:12.515Z,19.32
2022-08-24T04:54:11.443Z,19.34
2022-08-24T04:55:11.254Z,19.28
2022-08-24T04:56:13.542Z,19.15
2022-08-24T04:57:15.845Z,19.3
2022-08-24T04:58:15.483Z,19.39
2022-08-24T04:59:14.884Z,19.36
2022-08-24T05:00:15.289Z,19.37
2022-08-24T05:01:16.554Z,19.37
2022-08-24T05:02:14.977Z,19.34
2022-08-24T05:03:14.870Z,19.29
2022-08-24T05:04:14.836Z,19.4
2022-08-24T05:05:14.918Z,19.31
2022-08-24T05:06:15.440Z,19.35
2022-08-24T05:07:14.976Z,19.3
2022-08-24T05:08:15.613Z,19.34
2022-08-24T05:09:15.032Z,19.34
2022-08-24T05:10:15.047Z,19.35
2022-08-24T05:11:16.241Z,19.4
2022-08-24T05:12:15.427Z,19.44
2022-08-24T05:13:16.229Z,19.47
2022-08-24T05:14:15.049Z,19.52
2022-08-24T05:15:15.127Z,19.5
2022-08-24T05:16:16.581Z,19.52
2022-08-24T05:17:15.227Z,19.59
2022-08-24T05:18:16.514Z,19.66
2022-08-24T05:19:15.195Z,19.66
2022-08-24T05:20:15.225Z,19.69
2022-08-24T05:21:17.175Z,19.75
2022-08-24T05:22:15.259Z,19.86
2022-08-24T05:23:15.152Z,19.92
2022-08-24T05:24:15.232Z,20.02
2022-08-24T05:25:15.406Z,20.11
2022-08-24T05:26:16.762Z,20.13
2022-08-24T05:27:15.627Z,20.14
2022-08-24T05:28:16.147Z,20.26
2022-08-24T05:29:16.089Z,20.32
2022-08-24T05:30:16.282Z,20.33
2022-08-24T05:31:20.246Z,20.24
2022-08-24T05:32:17.320Z,20.23
2022-08-24T05:33:17.336Z,20.33
2022-08-24T05:34:17.733Z,20.31
2022-08-24T05:35:17.338Z,20.18
2022-08-24T05:36:22.459Z,20.16
2022-08-24T05:37:19.416Z,20.17
2022-08-24T05:38:19.378Z,20.23
2022-08-24T05:39:19.491Z,20.25
2022-08-24T05:40:19.900Z,20.37
2022-08-24T05:41:19.986Z,20.43
2022-08-24T05:42:19.526Z,20.46
2022-08-24T05:43:19.419Z,20.58
2022-08-24T05:44:19.491Z,20.51
2022-08-24T05:45:19.868Z,20.53
2022-08-24T05:46:19.693Z,20.59
2022-08-24T05:47:19.669Z,20.61
2022-08-24T05:48:19.611Z,20.63
2022-08-24T05:49:20.083Z,20.58
2022-08-24T05:50:19.985Z,20.55
2022-08-24T05:51:20.106Z,20.5
2022-08-24T05:52:20.511Z,20.4
2022-08-24T05:53:19.677Z,20.44
2022-08-24T05:54:19.918Z,20.57
2022-08-24T05:55:19.719Z,20.59
2022-08-24T05:56:20.105Z,20.63
2022-08-24T05:57:19.906Z,20.8
2022-08-24T05:58:27.184Z,20.78
2022-08-24T05:59:23.105Z,20.84
2022-08-24T06:00:23.478Z,20.75
2022-08-24T06:01:26.343Z,20.67
2022-08-24T06:02:23.495Z,20.69
2022-08-24T06:03:23.354Z,20.55
2022-08-24T06:04:23.430Z,20.56
2022-08-24T06:05:23.417Z,20.65
2022-08-24T06:06:24.180Z,20.64
2022-08-24T06:07:23.528Z,20.72
2022-08-24T06:08:23.394Z,20.7
2022-08-24T06:09:23.434Z,20.8
2022-08-24T06:10:38.740Z,20.79
2022-08-24T06:11:30.648Z,20.8
2022-08-24T06:12:27.845Z,20.79
2022-08-24T06:13:28.150Z,20.92
2022-08-24T06:14:28.088Z,20.89
2022-08-24T06:15:27.772Z,20.9
2022-08-24T06:16:28.033Z,20.89
2022-08-24T06:17:27.926Z,20.92
2022-08-24T06:18:27.781Z,21.02
2022-08-24T06:19:27.964Z,21.08
2022-08-24T06:20:27.948Z,21.29
2022-08-24T06:21:28.445Z,21.4
2022-08-24T06:22:27.964Z,21.29
2022-08-24T06:23:27.937Z,21.26
2022-08-24T06:24:28.332Z,21.45
2022-08-24T06:25:27.831Z,21.33
2022-08-24T06:26:28.886Z,21.49
2022-08-24T06:27:28.739Z,21.43
2022-08-24T06:28:28.102Z,21.48
2022-08-24T06:29:28.126Z,21.63
2022-08-24T06:30:30.162Z,21.71
2022-08-24T06:31:28.318Z,21.84
2022-08-24T06:32:29.715Z,21.75
2022-08-24T06:33:29.789Z,21.87
2022-08-24T06:34:29.885Z,21.95
2022-08-24T06:35:29.745Z,21.93
2022-08-24T06:36:29.944Z,22.13
2022-08-24T06:37:30.625Z,22.13
2022-08-24T06:38:29.856Z,22.17
2022-08-24T06:39:29.927Z,22.27
2022-08-24T06:40:30.073Z,22.32
2022-08-24T06:41:30.099Z,22.27
2022-08-24T06:42:29.883Z,22.43
2022-08-24T06:43:30.056Z,22.38
2022-08-24T06:44:29.978Z,22.42
2022-08-24T06:45:29.965Z,22.33
2022-08-24T06:46:32.869Z,22.27
2022-08-24T06:47:30.253Z,22.33
2022-08-24T06:48:30.426Z,22.53
2022-08-24T06:49:30.380Z,22.7
2022-08-24T06:50:30.493Z,22.49
2022-08-24T06:51:30.303Z,22.51
2022-08-24T06:52:30.314Z,22.52
2022-08-24T06:53:30.377Z,22.78
2022-08-24T06:54:30.383Z,22.76
2022-08-24T06:55:30.414Z,22.72
2022-08-24T06:56:30.821Z,22.74
2022-08-24T06:57:30.408Z,22.77
2022-08-24T06:58:30.684Z,22.8
2022-08-24T06:59:31.243Z,22.75
2022-08-24T07:00:30.451Z,22.71
2022-08-24T07:01:31.119Z,22.78
2022-08-24T07:02:30.683Z,22.79
2022-08-24T07:03:30.501Z,22.8
2022-08-24T07:04:30.624Z,22.79
2022-08-24T07:05:30.754Z,22.9
2022-08-24T07:06:30.492Z,22.96
2022-08-24T07:07:30.766Z,22.86
2022-08-24T07:08:30.769Z,22.99
2022-08-24T07:09:33.119Z,23.08
2022-08-24T07:10:30.916Z,23.18
2022-08-24T07:11:30.541Z,23.18
2022-08-24T07:12:30.722Z,23.28
2022-08-24T07:13:30.734Z,23.36
2022-08-24T07:14:30.690Z,23.23
2022-08-24T07:15:30.771Z,23.3
2022-08-24T07:16:30.757Z,23.26
2022-08-24T07:17:30.747Z,23.39
2022-08-24T07:18:30.778Z,23.52
2022-08-24T07:19:30.914Z,23.7
2022-08-24T07:20:30.834Z,23.48
2022-08-24T07:21:31.318Z,23.62
2022-08-24T07:22:30.801Z,23.59
2022-08-24T07:23:41.736Z,23.6
2022-08-24T07:24:34.329Z,23.61
2022-08-24T07:25:35.115Z,23.69
2022-08-24T07:26:34.829Z,23.59
2022-08-24T07:27:34.372Z,23.79
2022-08-24T07:28:38.234Z,23.76
2022-08-24T07:29:50.561Z,23.78
2022-08-24T07:30:36.780Z,23.61
2022-08-24T07:31:38.592Z,23.56
2022-08-24T07:32:36.862Z,23.65
2022-08-24T07:33:36.832Z,23.75
2022-08-24T07:34:36.810Z,23.86
2022-08-24T07:35:37.094Z,24.03
2022-08-24T07:36:41.015Z,24.23
2022-08-24T07:37:41.727Z,24.07
2022-08-24T07:38:40.739Z,24.13
2022-08-24T07:39:40.720Z,24.13
2022-08-24T07:41:05.055Z,24.39
2022-08-24T07:42:02.585Z,24.31
2022-08-24T07:42:49.032Z,24.42
2022-08-24T07:43:48.725Z,24.3
2022-08-24T07:44:45.585Z,24.3
2022-08-24T07:45:45.627Z,24.42
2022-08-24T07:46:45.761Z,24.2
2022-08-24T07:48:52.763Z,24.4
2022-08-24T07:49:52.585Z,24.33
2022-08-24T07:50:52.847Z,24.48
2022-08-24T07:51:52.653Z,24.53
2022-08-24T07:52:52.612Z,24.49
2022-08-24T07:53:54.194Z,24.26
2022-08-24T07:54:52.753Z,24.47
2022-08-24T07:55:57.275Z,24.4
2022-08-24T07:56:56.467Z,24.43
2022-08-24T07:57:56.316Z,24.47
2022-08-24T07:58:56.233Z,24.58
2022-08-24T07:59:56.158Z,24.64
2022-08-24T08:00:56.054Z,24.74
2022-08-24T08:01:56.619Z,24.81
2022-08-24T08:02:56.240Z,24.88
2022-08-24T08:03:56.627Z,24.97
2022-08-24T08:04:56.597Z,25.04
2022-08-24T08:05:59.953Z,24.88
2022-08-24T08:06:58.895Z,24.98
2022-08-24T08:07:59.135Z,25.22
2022-08-24T08:09:00.951Z,25.13
2022-08-24T08:09:59.998Z,25.21
2022-08-24T08:10:59.018Z,25.11
2022-08-24T08:11:59.022Z,25.24
2022-08-24T08:12:59.010Z,25.28
2022-08-24T08:13:59.417Z,25.43
2022-08-24T08:14:59.052Z,25.58
2022-08-24T08:16:00.522Z,25.57
2022-08-24T08:16:59.058Z,25.37
2022-08-24T08:17:59.228Z,25.47
2022-08-24T08:19:14.527Z,25.41
2022-08-24T08:20:01.658Z,25.7
2022-08-24T08:21:02.767Z,25.44
2022-08-24T08:22:01.577Z,25.7
2022-08-24T08:23:01.652Z,25.51
2022-08-24T08:24:01.688Z,25.56
2022-08-24T08:25:01.601Z,25.74
2022-08-24T08:26:01.611Z,25.84
2022-08-24T08:27:01.626Z,25.79
2022-08-24T08:28:08.069Z,25.84
2022-08-24T08:29:05.671Z,25.88
2022-08-24T08:30:06.306Z,25.98
2022-08-24T08:31:06.393Z,26.12
2022-08-24T08:32:06.104Z,26.11
2022-08-24T08:33:05.816Z,26.05
2022-08-24T08:34:06.419Z,26.01
2022-08-24T08:35:06.394Z,26.12
2022-08-24T08:36:07.969Z,25.93
2022-08-24T08:37:06.034Z,26.06
2022-08-24T08:38:06.417Z,26.19
2022-08-24T08:39:09.817Z,26.19
2022-08-24T08:40:09.162Z,26.18
2022-08-24T08:44:17.548Z,26.08
2022-08-24T08:45:24.895Z,26.2
2022-08-24T08:55:39.795Z,26.37
2022-08-24T09:00:54.430Z,26.79
2022-08-24T09:02:05.362Z,26.92
2022-08-24T09:06:08.263Z,26.89
2022-08-24T09:14:39.587Z,27.67
2022-08-24T09:16:49.668Z,27.81
2022-08-24T09:19:50.155Z,27.71
2022-08-24T09:26:03.996Z,27.98
2022-08-24T09:30:09.906Z,28.15
2022-08-24T09:33:08.887Z,27.91
2022-08-24T09:34:18.227Z,28.19
2022-08-24T09:35:26.264Z,28.18
2022-08-24T09:36:20.397Z,28.06
2022-08-24T09:56:19.618Z,27.89
2022-08-24T10:01:36.021Z,28.35
2022-08-24T10:07:53.952Z,28.26
2022-08-24T10:08:55.019Z,28.33
2022-08-24T10:11:54.918Z,28.17
2022-08-24T10:13:00.369Z,27.84
2022-08-24T10:16:05.112Z,28.53
2022-08-24T10:24:29.971Z,27.78
2022-08-24T10:32:45.312Z,27.89
2022-08-24T10:34:47.893Z,28.14
2022-08-24T10:38:51.403Z,28.26
2022-08-24T10:53:30.214Z,28.59
2022-08-24T10:54:32.638Z,28.55
2022-08-24T10:55:30.708Z,28.34
2022-08-24T10:57:39.032Z,28.46
2022-08-24T11:00:38.151Z,28.33
2022-08-24T11:01:38.462Z,28.28
2022-08-24T11:02:39.040Z,28.85
2022-08-24T11:03:47.717Z,28.88
2022-08-24T11:04:40.115Z,28.77
2022-08-24T11:05:47.307Z,29.01
2022-08-24T11:08:53.851Z,28.77
2022-08-24T11:09:56.005Z,28.97
2022-08-24T11:11:53.878Z,28.55
2022-08-24T11:12:53.961Z,28.41
2022-08-24T11:13:55.796Z,28.35
2022-08-24T11:14:55.588Z,28.48
2022-08-24T11:15:58.327Z,28.34
2022-08-24T11:18:01.414Z,28.43
2022-08-24T11:19:01.635Z,28.41
2022-08-24T11:20:00.346Z,28.57
2022-08-24T11:21:00.282Z,28.62
2022-08-24T11:23:05.486Z,28.33
2022-08-24T11:25:09.126Z,28.5
2022-08-24T11:26:09.558Z,28.47
2022-08-24T11:27:08.792Z,28.44
2022-08-24T11:28:07.712Z,28.47
2022-08-24T11:29:06.035Z,28.43
2022-08-24T11:34:29.421Z,28.32
2022-08-24T11:35:27.151Z,28.69
2022-08-24T11:36:21.244Z,28.48
2022-08-24T11:37:24.424Z,28.19
2022-08-24T11:38:24.399Z,28.35
2022-08-24T11:39:35.430Z,28.21
2022-08-24T11:40:26.756Z,28.07
2022-08-24T11:41:32.423Z,28.36
2022-08-24T11:42:35.080Z,28.37
2022-08-24T11:43:33.779Z,28.58
2022-08-24T11:45:36.736Z,28.57
2022-08-24T12:00:06.209Z,29.45
2022-08-24T12:01:08.771Z,29.03
2022-08-24T12:02:08.186Z,29.2
2022-08-24T12:03:12.491Z,29.12
2022-08-24T12:09:29.301Z,28.98
2022-08-24T12:12:41.237Z,28.79
2022-08-24T12:15:52.368Z,29.1
2022-08-24T12:17:47.370Z,29.35
2022-08-24T12:19:53.064Z,29.23
2022-08-24T12:20:51.164Z,29.5
2022-08-24T12:21:53.418Z,29.59
2022-08-24T12:22:51.942Z,29.46
2022-08-24T12:23:52.419Z,29.56
2022-08-24T12:24:53.589Z,29.66
2022-08-24T12:25:54.831Z,29.64
2022-08-24T12:26:53.840Z,29.57
2022-08-24T12:27:52.431Z,29.55
2022-08-24T12:28:54.757Z,29.33
2022-08-24T12:30:54.936Z,29.47
2022-08-24T12:33:58.460Z,29.57
2022-08-24T12:36:02.477Z,29.57
2022-08-24T12:38:03.466Z,30.1
2022-08-24T12:39:13.242Z,30.01
2022-08-24T12:41:18.883Z,30.03
2022-08-24T12:44:14.244Z,30.25
2022-08-24T12:45:11.829Z,30.59
2022-08-24T12:46:12.976Z,30.15
2022-08-24T12:47:13.513Z,30.23
2022-08-24T12:48:14.116Z,30.18
2022-08-24T12:59:48.837Z,29.91
2022-08-24T13:00:45.433Z,30.32
2022-08-24T13:01:46.447Z,30.14
2022-08-24T13:02:48.395Z,30.13
2022-08-24T13:03:48.285Z,30.14
2022-08-24T13:05:50.280Z,30.55
2022-08-24T13:06:56.337Z,30.43
2022-08-24T13:07:52.150Z,30.22
2022-08-24T13:08:51.568Z,30.5
2022-08-24T13:11:56.853Z,30.34
2022-08-24T13:16:03.538Z,29.82
2022-08-24T13:17:11.904Z,30.19
2022-08-24T13:21:15.070Z,29.97
2022-08-24T13:23:17.311Z,29.93
2022-08-24T13:26:22.614Z,30.06
2022-08-24T13:29:25.749Z,30.39
2022-08-24T13:30:26.005Z,29.99
2022-08-24T13:32:31.514Z,29.7
2022-08-24T13:37:39.844Z,29.45
2022-08-24T13:38:50.246Z,29.37
2022-08-24T13:39:54.016Z,29.25
2022-08-24T13:40:50.145Z,29.29
2022-08-24T13:41:54.679Z,29.32
2022-08-24T13:57:34.921Z,28.82
2022-08-24T14:22:32.211Z,28.42
2022-08-24T14:24:46.102Z,28.55
2022-08-24T14:25:38.697Z,28.44
2022-08-24T14:27:41.974Z,28.4
2022-08-24T14:28:41.289Z,28.46
2022-08-24T14:29:41.769Z,28.43
2022-08-24T14:30:41.869Z,28.41
2022-08-24T14:31:40.358Z,28.36
2022-08-24T14:32:43.992Z,28.15
2022-08-24T14:34:47.567Z,28.12
2022-08-24T14:38:54.477Z,27.73
2022-08-24T14:45:08.159Z,27.89
2022-08-24T14:55:34.454Z,27.62
2022-08-24T15:01:45.632Z,27.22
2022-08-24T15:04:55.376Z,27.05
2022-08-24T15:06:55.757Z,26.9
2022-08-24T15:10:02.316Z,26.89
2022-08-24T15:11:07.460Z,27.05
2022-08-24T15:14:12.018Z,27
2022-08-24T15:15:15.238Z,26.93
2022-08-24T15:22:45.972Z,26.6
2022-08-24T15:24:51.091Z,26.6
2022-08-24T15:25:47.867Z,26.5
2022-08-24T15:26:55.090Z,26.39
2022-08-24T15:27:53.442Z,26.12
2022-08-24T15:28:56.581Z,26.04
2022-08-24T15:29:58.899Z,26
2022-08-24T15:31:00.404Z,25.93
2022-08-24T15:31:59.893Z,25.82
2022-08-24T15:34:01.508Z,25.97
2022-08-24T15:34:58.776Z,25.83
2022-08-24T15:37:01.062Z,25.72
2022-08-24T15:39:05.914Z,25.72
2022-08-24T15:43:11.127Z,25.46
2022-08-24T15:45:15.034Z,25.22
2022-08-24T15:46:19.179Z,25.36
2022-08-24T15:47:24.768Z,25.26
2022-08-24T15:48:20.257Z,25.18
2022-08-24T15:49:20.769Z,24.99
2022-08-24T15:50:22.424Z,24.84
2022-08-24T15:54:31.938Z,24.79
2022-08-24T15:56:40.577Z,24.64
2022-08-24T15:57:39.659Z,24.63
2022-08-24T15:58:38.323Z,24.63
2022-08-24T15:59:47.884Z,24.67
2022-08-24T16:00:44.218Z,24.6
2022-08-24T16:01:41.864Z,24.7
2022-08-24T16:02:42.221Z,24.63
2022-08-24T16:03:46.531Z,24.69
2022-08-24T16:04:48.067Z,24.67
2022-08-24T16:05:49.379Z,24.84
2022-08-24T16:06:48.346Z,24.67
2022-08-24T16:10:55.272Z,24.45
2022-08-24T16:13:58.756Z,24.43
2022-08-24T16:16:11.674Z,24.4
2022-08-24T16:18:05.418Z,24.29
2022-08-24T16:19:08.578Z,24.3
2022-08-24T16:22:25.216Z,24.55
2022-08-24T16:23:25.229Z,24.54
2022-08-24T16:24:33.353Z,24.55
2022-08-24T16:25:37.760Z,24.43
2022-08-24T16:26:29.326Z,24.37
2022-08-24T16:34:37.750Z,24.13
2022-08-24T16:35:37.392Z,24.11
2022-08-24T16:36:37.144Z,24.17
2022-08-24T16:37:37.241Z,24.14
2022-08-24T16:38:38.478Z,24.21
2022-08-24T16:39:37.052Z,24.3
2022-08-24T16:40:37.179Z,24.36
2022-08-24T16:41:37.355Z,24.27
2022-08-24T16:42:37.516Z,24.22
2022-08-24T16:43:38.495Z,24.21
2022-08-24T16:44:41.892Z,24.32
2022-08-24T16:45:38.589Z,24.33
2022-08-24T16:46:39.075Z,24.32
2022-08-24T16:47:38.472Z,24.38
2022-08-24T16:48:38.481Z,24.41
2022-08-24T16:49:38.460Z,24.35
2022-08-24T16:50:38.506Z,24.29
2022-08-24T16:51:38.939Z,24.03
2022-08-24T16:52:42.142Z,23.99
2022-08-24T16:53:42.024Z,23.73
2022-08-24T16:54:42.448Z,23.84
2022-08-24T16:55:42.105Z,23.74
2022-08-24T16:56:42.512Z,23.81
2022-08-24T16:57:42.429Z,23.84
2022-08-24T16:58:42.236Z,23.88
2022-08-24T16:59:44.347Z,23.93
2022-08-24T17:00:42.266Z,23.89
2022-08-24T17:01:42.216Z,23.8
2022-08-24T17:02:42.561Z,23.73
2022-08-24T17:03:42.216Z,23.76
2022-08-24T17:04:42.552Z,23.75
2022-08-24T17:05:42.256Z,23.75
2022-08-24T17:06:42.297Z,23.76
2022-08-24T17:07:42.670Z,23.71
2022-08-24T17:08:42.294Z,23.74
2022-08-24T17:09:44.635Z,23.68
2022-08-24T17:10:42.338Z,23.41
2022-08-24T17:11:42.304Z,23.24
2022-08-24T17:12:42.222Z,23.27
2022-08-24T17:13:50.737Z,23.53
2022-08-24T17:14:42.721Z,23.56
2022-08-24T17:15:42.623Z,23.45
2022-08-24T17:16:42.774Z,23.36
2022-08-24T17:17:44.943Z,23.34
2022-08-24T17:18:42.674Z,23.27
2022-08-24T17:19:43.516Z,23.29
2022-08-24T17:20:42.666Z,23.27
2022-08-24T17:21:42.999Z,23.29
2022-08-24T17:22:42.643Z,23.29
2022-08-24T17:23:43.273Z,23.1
2022-08-24T17:24:42.790Z,22.85
2022-08-24T17:25:43.288Z,22.67
2022-08-24T17:26:48.314Z,22.98
2022-08-24T17:27:45.107Z,23.22
2022-08-24T17:28:45.253Z,23.15
2022-08-24T17:29:45.765Z,23.03
2022-08-24T17:30:48.559Z,23
2022-08-24T17:31:48.127Z,23.18
2022-08-24T17:32:47.487Z,23.39
2022-08-24T17:33:47.574Z,23.49
2022-08-24T17:34:47.495Z,23.43
2022-08-24T17:35:48.023Z,23.3
2022-08-24T17:36:49.059Z,23.38
2022-08-24T17:37:48.434Z,23.35
2022-08-24T17:38:54.548Z,23.37
2022-08-24T17:39:54.498Z,23.31
2022-08-24T17:40:51.788Z,23.33
2022-08-24T17:41:52.524Z,23.33
2022-08-24T17:42:52.186Z,23.24
2022-08-24T17:43:52.388Z,23.1
2022-08-24T17:44:51.813Z,23.17
2022-08-24T17:45:51.890Z,23.23
2022-08-24T17:46:53.535Z,23.13
2022-08-24T17:47:52.104Z,23.24
2022-08-24T17:48:51.847Z,23.23
2022-08-24T17:49:51.905Z,23.27
2022-08-24T17:50:52.804Z,23.2
2022-08-24T17:51:52.129Z,23.17
2022-08-24T17:52:56.339Z,23.14
2022-08-24T17:53:56.681Z,23.18
2022-08-24T17:54:56.992Z,23.17
2022-08-24T17:55:56.777Z,23.2
2022-08-24T17:56:57.194Z,23.13
2022-08-24T17:57:56.888Z,23.19
2022-08-24T17:58:56.702Z,23.25
2022-08-24T17:59:56.831Z,23.26
2022-08-24T18:00:56.892Z,23.23